Time,TemperatureF,DewpointF,PressureIn,WindDirection,WindDirectionDegrees,WindSpeedMPH,WindSpeedGustMPH,Humidity,HourlyPrecipIn,Conditions,Clouds,dailyrainin,SoftwareType,DateUTC
2013-11-05 00:13:00,23.0,15.0,30.05,WNW,294,18.0,-999.0,70,-99.99,,,-99.99,,2013-11-05 06:13:00,
2013-11-05 00:21:00,23.0,15.0,30.06,West,277,13.0,-999.0,72,-99.99,,,-99.99,,2013-11-05 06:21:00,
2013-11-05 00:42:00,22.0,15.0,30.06,West,276,12.0,-999.0,74,-99.99,,,-99.99,,2013-11-05 06:42:00,
2013-11-05 00:52:00,22.0,15.0,30.07,WNW,288,12.0,-999.0,75,-99.99,,,-99.99,,2013-11-05 06:52:00,
2013-11-05 01:22:00,22.0,16.0,30.08,West,271,11.0,-999.0,77,-99.99,,,-99.99,,2013-11-05 07:22:00,
2013-11-05 01:42:00,22.0,16.0,30.08,West,276,12.0,-999.0,78,-99.99,,,-99.99,,2013-11-05 07:42:00,
2013-11-05 01:52:00,21.0,16.0,30.09,West,267,12.0,-999.0,79,-99.99,,,-99.99,,2013-11-05 07:52:00,
2013-11-05 02:11:00,21.0,16.0,30.09,WNW,284,12.0,-999.0,79,-99.99,,,-99.99,,2013-11-05 08:11:00,
2013-11-05 02:22:00,21.0,16.0,30.10,West,272,12.0,-999.0,79,-99.99,,,-99.99,,2013-11-05 08:22:00,
2013-11-05 02:42:00,21.0,16.0,30.10,WNW,284,11.0,-999.0,80,-99.99,,,-99.99,,2013-11-05 08:42:00,
2013-11-05 02:52:00,21.0,16.0,30.11,WNW,282,12.0,-999.0,80,-99.99,,,-99.99,,2013-11-05 08:52:00,
2013-11-05 03:11:00,21.0,16.0,30.11,West,279,11.0,-999.0,81,-99.99,,,-99.99,,2013-11-05 09:11:00,
2013-11-05 03:22:00,21.0,16.0,30.11,WNW,284,10.0,-999.0,81,-99.99,,,-99.99,,2013-11-05 09:22:00,
2013-11-05 03:33:00,21.0,16.0,30.11,WNW,284,10.0,-999.0,81,-99.99,,,-99.99,,2013-11-05 09:33:00,
2013-11-05 03:43:00,21.0,16.0,30.11,WNW,284,10.0,-999.0,81,-99.99,,,-99.99,,2013-11-05 09:43:00,
2013-11-05 03:53:00,20.0,15.0,30.12,West,263,8.0,-999.0,82,-99.99,,,-99.99,,2013-11-05 09:53:00,
2013-11-05 04:13:00,20.0,15.0,30.12,West,279,9.0,-999.0,82,-99.99,,,-99.99,,2013-11-05 10:13:00,
2013-11-05 04:23:00,20.0,16.0,30.12,West,272,8.0,-999.0,83,-99.99,,,-99.99,,2013-11-05 10:23:00,
2013-11-05 04:42:00,20.0,16.0,30.13,West,273,10.0,-999.0,83,-99.99,,,-99.99,,2013-11-05 10:42:00,
2013-11-05 04:53:00,20.0,16.0,30.13,WNW,284,10.0,-999.0,83,-99.99,,,-99.99,,2013-11-05 10:53:00,
2013-11-05 05:12:00,20.0,16.0,30.14,West,279,10.0,-999.0,83,-99.99,,,-99.99,,2013-11-05 11:12:00,
2013-11-05 05:22:00,19.0,15.0,30.14,WNW,291,9.0,-999.0,83,-99.99,,,-99.99,,2013-11-05 11:22:00,
2013-11-05 05:52:00,19.0,15.0,30.14,West,273,9.0,-999.0,83,-99.99,,,-99.99,,2013-11-05 11:52:00,
2013-11-05 06:22:00,18.0,14.0,30.15,West,277,7.0,-999.0,84,-99.99,,,-99.99,,2013-11-05 12:22:00,
2013-11-05 06:42:00,18.0,14.0,30.16,WNW,285,6.0,-999.0,84,-99.99,,,-99.99,,2013-11-05 12:42:00,
2013-11-05 06:52:00,18.0,14.0,30.16,WNW,282,5.0,-999.0,84,-99.99,,,-99.99,,2013-11-05 12:52:00,
2013-11-05 07:11:00,17.0,13.0,30.16,WNW,292,6.0,-999.0,85,-99.99,,,-99.99,,2013-11-05 13:11:00,
2013-11-05 07:21:00,17.0,13.0,30.16,West,276,6.0,-999.0,85,-99.99,,,-99.99,,2013-11-05 13:21:00,
2013-11-05 07:42:00,17.0,13.0,30.16,West,263,2.0,-999.0,85,-99.99,,,-99.99,,2013-11-05 13:42:00,
2013-11-05 07:52:00,17.0,13.0,30.17,West,261,4.0,-999.0,85,-99.99,,,-99.99,,2013-11-05 13:52:00,
2013-11-05 08:22:00,17.0,13.0,30.18,West,264,7.0,-999.0,85,-99.99,,,-99.99,,2013-11-05 14:22:00,
2013-11-05 08:52:00,18.0,14.0,30.19,West,263,4.0,-999.0,84,-99.99,,,-99.99,,2013-11-05 14:52:00,
2013-11-05 09:21:00,18.0,14.0,30.20,West,281,11.0,-999.0,83,-99.99,,,-99.99,,2013-11-05 15:21:00,
2013-11-05 09:53:00,20.0,15.0,30.21,West,277,11.0,-999.0,82,-99.99,,,-99.99,,2013-11-05 15:53:00,
2013-11-05 10:13:00,20.0,15.0,30.21,West,281,11.0,-999.0,80,-99.99,,,-99.99,,2013-11-05 16:13:00,
2013-11-05 10:23:00,21.0,16.0,30.21,WNW,299,10.0,-999.0,79,-99.99,,,-99.99,,2013-11-05 16:23:00,
2013-11-05 10:53:00,22.0,16.0,30.21,West,271,10.0,-999.0,77,-99.99,,,-99.99,,2013-11-05 16:53:00,
2013-11-05 11:22:00,24.0,16.0,30.22,WNW,282,11.0,-999.0,72,-99.99,,,-99.99,,2013-11-05 17:22:00,
2013-11-05 11:42:00,25.0,17.0,30.22,West,280,11.0,-999.0,70,-99.99,,,-99.99,,2013-11-05 17:42:00,
2013-11-05 11:52:00,26.0,17.0,30.22,WNW,299,12.0,-999.0,68,-99.99,,,-99.99,,2013-11-05 17:52:00,
2013-11-05 12:22:00,28.0,17.0,30.22,WSW,257,13.0,-999.0,64,-99.99,,,-99.99,,2013-11-05 18:22:00,
2013-11-05 12:52:00,30.0,17.0,30.21,WNW,291,14.0,-999.0,59,-99.99,,,-99.99,,2013-11-05 18:52:00,
2013-11-05 13:22:00,31.0,18.0,30.20,West,269,14.0,-999.0,58,-99.99,,,-99.99,,2013-11-05 19:22:00,
2013-11-05 13:52:00,32.0,18.0,30.19,West,274,14.0,-999.0,55,-99.99,,,-99.99,,2013-11-05 19:52:00,
2013-11-05 14:22:00,33.0,18.0,30.17,West,276,12.0,-999.0,53,-99.99,,,-99.99,,2013-11-05 20:22:00,
2013-11-05 14:42:00,33.0,17.0,30.17,WNW,284,13.0,-999.0,52,-99.99,,,-99.99,,2013-11-05 20:42:00,
2013-11-05 14:52:00,34.0,18.0,30.17,West,275,13.0,-999.0,52,-99.99,,,-99.99,,2013-11-05 20:52:00,
2013-11-05 15:22:00,34.0,18.0,30.16,West,269,11.0,-999.0,52,-99.99,,,-99.99,,2013-11-05 21:22:00,
2013-11-05 15:44:00,34.0,19.0,30.16,West,281,10.0,-999.0,53,-99.99,,,-99.99,,2013-11-05 21:44:00,
2013-11-05 15:54:00,35.0,20.0,30.16,WNW,284,10.0,-999.0,53,-99.99,,,-99.99,,2013-11-05 21:54:00,
2013-11-05 16:23:00,34.0,20.0,30.16,West,277,9.0,-999.0,55,-99.99,,,-99.99,,2013-11-05 22:23:00,
2013-11-05 16:43:00,34.0,20.0,30.16,West,277,7.0,-999.0,56,-99.99,,,-99.99,,2013-11-05 22:43:00,
2013-11-05 16:53:00,33.0,19.0,30.16,WNW,288,5.0,-999.0,57,-99.99,,,-99.99,,2013-11-05 22:53:00,
2013-11-05 17:22:00,31.0,20.0,30.16,WNW,291,2.0,-999.0,62,-99.99,,,-99.99,,2013-11-05 23:22:00,
2013-11-05 17:42:00,30.0,19.0,30.15,WNW,291,0.0,-999.0,64,-99.99,,,-99.99,,2013-11-05 23:42:00,
2013-11-05 17:53:00,30.0,20.0,30.16,WNW,291,0.0,-999.0,65,-99.99,,,-99.99,,2013-11-05 23:53:00,
2013-11-05 18:12:00,29.0,19.0,30.16,WNW,291,0.0,-999.0,67,-99.99,,,-99.99,,2013-11-06 00:12:00,
2013-11-05 18:22:00,28.0,19.0,30.16,WNW,291,0.0,-999.0,69,-99.99,,,-99.99,,2013-11-06 00:22:00,
2013-11-05 18:42:00,26.0,18.0,30.16,WNW,291,0.0,-999.0,70,-99.99,,,-99.99,,2013-11-06 00:42:00,
2013-11-05 18:52:00,24.0,17.0,30.16,WNW,291,0.0,-999.0,75,-99.99,,,-99.99,,2013-11-06 00:52:00,
2013-11-05 19:22:00,26.0,19.0,30.15,WNW,291,0.0,-999.0,75,-99.99,,,-99.99,,2013-11-06 01:22:00,
2013-11-05 19:42:00,26.0,19.0,30.15,WNW,291,3.0,-999.0,75,-99.99,,,-99.99,,2013-11-06 01:42:00,
2013-11-05 19:52:00,24.0,18.0,30.15,West,279,3.0,-999.0,76,-99.99,,,-99.99,,2013-11-06 01:52:00,
2013-11-05 20:23:00,21.0,15.0,30.15,West,277,0.0,-999.0,78,-99.99,,,-99.99,,2013-11-06 02:23:00,
2013-11-05 20:42:00,19.0,14.0,30.14,West,278,0.0,-999.0,81,-99.99,,,-99.99,,2013-11-06 02:42:00,
2013-11-05 20:52:00,19.0,15.0,30.14,West,278,0.0,-999.0,83,-99.99,,,-99.99,,2013-11-06 02:52:00,
2013-11-05 21:22:00,20.0,16.0,30.14,West,278,0.0,-999.0,86,-99.99,,,-99.99,,2013-11-06 03:22:00,
2013-11-05 21:43:00,21.0,17.0,30.14,West,277,0.0,-999.0,86,-99.99,,,-99.99,,2013-11-06 03:43:00,
2013-11-05 21:55:00,22.0,18.0,30.14,West,277,0.0,-999.0,85,-99.99,,,-99.99,,2013-11-06 03:55:00,
2013-11-05 22:14:00,21.0,17.0,30.13,West,278,0.0,-999.0,84,-99.99,,,-99.99,,2013-11-06 04:14:00,
2013-11-05 22:24:00,21.0,17.0,30.14,West,278,1.0,-999.0,85,-99.99,,,-99.99,,2013-11-06 04:24:00,
2013-11-05 22:43:00,18.0,14.0,30.13,West,277,0.0,-999.0,83,-99.99,,,-99.99,,2013-11-06 04:43:00,
2013-11-05 22:53:00,17.0,13.0,30.14,West,277,0.0,-999.0,85,-99.99,,,-99.99,,2013-11-06 04:53:00,
2013-11-05 23:13:00,16.0,13.0,30.14,West,277,0.0,-999.0,86,-99.99,,,-99.99,,2013-11-06 05:13:00,
2013-11-05 23:23:00,18.0,15.0,30.13,West,278,0.0,-999.0,88,-99.99,,,-99.99,,2013-11-06 05:23:00,
2013-11-05 23:44:00,17.0,14.0,30.13,West,278,0.0,-999.0,87,-99.99,,,-99.99,,2013-11-06 05:44:00,
2013-11-05 23:53:00,16.0,13.0,30.13,West,278,0.0,-999.0,88,-99.99,,,-99.99,,2013-11-06 05:53:00,